KSKA/SKA METAR and TAF weather

Enter ICAO airport designator
Station Type Date Time Source
KSKA METAR 2020/06/03 13:58 UTC NOAA

KSKA 031358Z AUTO 22003KT 10SM CLR 10/08 A3010 RMK AO2 SLP193 T00950081 $


Station Type Date Time Source
KSKA Decoded METAR 2020/06/03 13:58 UTC NOAA

Fairchild Air Force Base, WA, United States (KSKA) 47-37N 117-39W
Jun 03, 2020 - 09:58 AM EDT / 2020.06.03 1358 UTC
Wind: from the SW (220 degrees) at 3 MPH (3 KT):0
Visibility: 10 mile(s):0
Sky conditions: clear
Temperature: 49.1 F (9.5 C)
Dew Point: 46.6 F (8.1 C)
Relative Humidity: 90%
Pressure (altimeter): 30.1 in. Hg (1019 hPa)
ob: KSKA 031358Z AUTO 22003KT 10SM CLR 10/08 A3010 RMK AO2 SLP193 T00950081
cycle: 14

Station Type Date Time Source
KSKA TAF 2020/06/03 11:06 UTC NOAA

TAF KSKA 031100Z 0311/0417 21009KT 9999 SCT150 QNH3008INS
BECMG 0317/0318 22012KT 9999 SCT150 QNH2988INS TX20/0400Z TN06/0311Z

Example: see airport list